Terminal Aerodrome Forecast
Issued by NWS

Home | Current Version | Previous Version | Text Only | Print | Product List | Glossary On
Versions: 1 2 3 4 5 6 7 8 9 10 11 12 13 14 15 16 17 18 19 20
401
FTUS41 KLWX 212336
TAFMTN
TAF
KMTN 212336Z 2200/2224 11005KT P6SM BKN080
     FM220300 31004KT P6SM OVC030
     FM220600 36007KT P6SM -DZ OVC025
     FM221200 04006KT P6SM -RADZ OVC025
     FM221600 04008KT 3SM -RADZ BR OVC015
     FM221800 05007KT 2SM -RADZ BR OVC003
      AMD NOT SKED 2202/2212=

USA.gov is the U.S. government's official web portal to all federal, state and local government web resources and services.